EZY31K LFPG-EDDF
Flight info
| Callsign | EZY31K |
|---|---|
| Flight time | 0h 57m |
| Altitude | 22000 |
| Route | RANUX DCT VALEK DCT LIPNI UN858 LIMGO Z111 RAMOB IMCOM1A |
| Aircraft | A320/M-SDE3FGHIRWY/LB1 |
Departure
| Time | 2026-05-05 21:45 |
|---|---|
| Airport | Charles de Gaulle International Airport (LFPG) |
Arrival
| Time | 2026-05-05 22:42 |
|---|---|
| Airport | Frankfurt Main Airport (EDDF) |
| Time | Latitude | Longitude | Altitude | Speed | Heading |
|---|---|---|---|---|---|
| 2026-05-05 21:02 | 49.00526 | 2.56183 | 360 ft | 0 kts | 166° |
| 2026-05-05 21:24 | 49.00534 | 2.56180 | 354 ft | 4 kts | 166° |
| 2026-05-05 21:24 | 49.00560 | 2.56170 | 358 ft | 3 kts | 166° |
| 2026-05-05 21:24 | 49.00582 | 2.56156 | 364 ft | 4 kts | 130° |
| 2026-05-05 21:24 | 49.00590 | 2.56136 | 362 ft | 4 kts | 95° |
| 2026-05-05 21:25 | 49.00590 | 2.56111 | 362 ft | 1 kts | 84° |
| 2026-05-05 21:25 | 49.00589 | 2.56107 | 361 ft | 0 kts | 84° |
| 2026-05-05 21:30 | 49.00592 | 2.56138 | 359 ft | 7 kts | 84° |
| 2026-05-05 21:30 | 49.00594 | 2.56180 | 358 ft | 1 kts | 83° |
| 2026-05-05 21:30 | 49.00606 | 2.56206 | 355 ft | 6 kts | 56° |
| 2026-05-05 21:31 | 49.00616 | 2.56242 | 357 ft | 1 kts | 75° |
| 2026-05-05 21:31 | 49.00619 | 2.56278 | 354 ft | 5 kts | 84° |
| 2026-05-05 21:31 | 49.00620 | 2.56292 | 354 ft | 0 kts | 85° |
| 2026-05-05 21:35 | 49.00621 | 2.56314 | 354 ft | 4 kts | 85° |
| 2026-05-05 21:35 | 49.00624 | 2.56370 | 361 ft | 7 kts | 85° |
| 2026-05-05 21:35 | 49.00628 | 2.56424 | 357 ft | 2 kts | 77° |
| 2026-05-05 21:36 | 49.00644 | 2.56455 | 359 ft | 5 kts | 39° |
| 2026-05-05 21:36 | 49.00666 | 2.56461 | 359 ft | 3 kts | 357° |
| 2026-05-05 21:36 | 49.00697 | 2.56457 | 360 ft | 4 kts | 354° |
| 2026-05-05 21:36 | 49.00722 | 2.56453 | 354 ft | 5 kts | 354° |
| 2026-05-05 21:37 | 49.00759 | 2.56448 | 354 ft | 5 kts | 355° |
| 2026-05-05 21:37 | 49.00795 | 2.56434 | 361 ft | 9 kts | 329° |
| 2026-05-05 21:37 | 49.00805 | 2.56321 | 357 ft | 13 kts | 262° |
| 2026-05-05 21:37 | 49.00794 | 2.56189 | 358 ft | 8 kts | 276° |
| 2026-05-05 21:38 | 49.00770 | 2.56027 | 370 ft | 0 kts | 264° |
| 2026-05-05 21:38 | 49.00769 | 2.56008 | 354 ft | 8 kts | 263° |
| 2026-05-05 21:38 | 49.00750 | 2.55784 | 362 ft | 25 kts | 263° |
| 2026-05-05 21:38 | 49.00732 | 2.55533 | 358 ft | 22 kts | 264° |
| 2026-05-05 21:39 | 49.00717 | 2.55343 | 354 ft | 12 kts | 258° |
| 2026-05-05 21:39 | 49.00680 | 2.55264 | 356 ft | 7 kts | 218° |
| 2026-05-05 21:39 | 49.00634 | 2.55248 | 356 ft | 11 kts | 173° |
| 2026-05-05 21:39 | 49.00554 | 2.55286 | 359 ft | 10 kts | 161° |
| 2026-05-05 21:40 | 49.00497 | 2.55314 | 362 ft | 12 kts | 164° |
| 2026-05-05 21:40 | 49.00370 | 2.55362 | 354 ft | 18 kts | 165° |
| 2026-05-05 21:40 | 49.00270 | 2.55405 | 357 ft | 12 kts | 163° |
| 2026-05-05 21:40 | 49.00242 | 2.55418 | 357 ft | 1 kts | 163° |
| 2026-05-05 21:41 | 49.00142 | 2.55464 | 354 ft | 23 kts | 163° |
| 2026-05-05 21:41 | 49.00010 | 2.55502 | 359 ft | 16 kts | 201° |
| 2026-05-05 21:41 | 48.99982 | 2.55386 | 354 ft | 11 kts | 268° |
| 2026-05-05 21:41 | 48.99969 | 2.55148 | 354 ft | 29 kts | 265° |
| 2026-05-05 21:42 | 48.99952 | 2.54871 | 354 ft | 20 kts | 257° |
| 2026-05-05 21:42 | 48.99860 | 2.54812 | 354 ft | 12 kts | 178° |
| 2026-05-05 21:42 | 48.99791 | 2.54832 | 354 ft | 10 kts | 164° |
| 2026-05-05 21:42 | 48.99723 | 2.54929 | 354 ft | 13 kts | 115° |
| 2026-05-05 21:43 | 48.99679 | 2.55078 | 360 ft | 19 kts | 114° |
| 2026-05-05 21:43 | 48.99628 | 2.55243 | 359 ft | 15 kts | 116° |
| 2026-05-05 21:43 | 48.99592 | 2.55353 | 360 ft | 11 kts | 116° |
| 2026-05-05 21:43 | 48.99580 | 2.55460 | 352 ft | 16 kts | 85° |
| 2026-05-05 21:44 | 48.99611 | 2.55997 | 354 ft | 85 kts | 85° |
| 2026-05-05 21:44 | 48.99673 | 2.57186 | 356 ft | 138 kts | 85° |
| 2026-05-05 21:44 | 48.99756 | 2.58836 | 470 ft | 170 kts | 82° |
| 2026-05-05 21:44 | 48.99845 | 2.60692 | 902 ft | 186 kts | 82° |
| 2026-05-05 21:45 | 49.00014 | 2.62766 | 1256 ft | 208 kts | 77° |
| 2026-05-05 21:45 | 49.00233 | 2.64850 | 2303 ft | 188 kts | 77° |
| 2026-05-05 21:45 | 49.00473 | 2.66859 | 2907 ft | 202 kts | 76° |
| 2026-05-05 21:45 | 49.00787 | 2.69187 | 2947 ft | 242 kts | 77° |
| 2026-05-05 21:46 | 49.01065 | 2.71800 | 3430 ft | 264 kts | 79° |
| 2026-05-05 21:46 | 49.01326 | 2.74684 | 3833 ft | 284 kts | 80° |
| 2026-05-05 21:46 | 49.01568 | 2.77589 | 5164 ft | 262 kts | 82° |
| 2026-05-05 21:46 | 49.01793 | 2.80256 | 6159 ft | 264 kts | 82° |
| 2026-05-05 21:47 | 49.02042 | 2.83101 | 6787 ft | 276 kts | 82° |
| 2026-05-05 21:47 | 49.02308 | 2.86023 | 7590 ft | 281 kts | 82° |
| 2026-05-05 21:47 | 49.02581 | 2.88996 | 8433 ft | 285 kts | 82° |
| 2026-05-05 21:47 | 49.02843 | 2.92013 | 9268 ft | 290 kts | 83° |
| 2026-05-05 21:48 | 49.03100 | 2.95089 | 10027 ft | 297 kts | 84° |
| 2026-05-05 21:48 | 49.03365 | 2.98333 | 10310 ft | 320 kts | 84° |
| 2026-05-05 21:48 | 49.03648 | 3.01830 | 10523 ft | 344 kts | 84° |
| 2026-05-05 21:48 | 49.03947 | 3.05539 | 10914 ft | 359 kts | 84° |
| 2026-05-05 21:49 | 49.04256 | 3.09339 | 11632 ft | 363 kts | 84° |
| 2026-05-05 21:49 | 49.04570 | 3.13178 | 12361 ft | 367 kts | 84° |
| 2026-05-05 21:49 | 49.04886 | 3.17063 | 13071 ft | 371 kts | 84° |
| 2026-05-05 21:49 | 49.05203 | 3.20986 | 13770 ft | 375 kts | 84° |
| 2026-05-05 21:50 | 49.05521 | 3.24948 | 14395 ft | 378 kts | 84° |
| 2026-05-05 21:50 | 49.05841 | 3.28947 | 15024 ft | 382 kts | 84° |
| 2026-05-05 21:50 | 49.06162 | 3.32974 | 15665 ft | 385 kts | 84° |
| 2026-05-05 21:50 | 49.06484 | 3.37040 | 16277 ft | 388 kts | 84° |
| 2026-05-05 21:51 | 49.06810 | 3.41148 | 16901 ft | 392 kts | 84° |
| 2026-05-05 21:51 | 49.07137 | 3.45292 | 17523 ft | 395 kts | 84° |
| 2026-05-05 21:51 | 49.07464 | 3.49467 | 18136 ft | 399 kts | 85° |
| 2026-05-05 21:51 | 49.07791 | 3.53680 | 18681 ft | 401 kts | 85° |
| 2026-05-05 21:52 | 49.08444 | 3.62183 | 19832 ft | 406 kts | 85° |
| 2026-05-05 21:52 | 49.08770 | 3.66469 | 20409 ft | 407 kts | 85° |
| 2026-05-05 21:52 | 49.09098 | 3.70774 | 20968 ft | 409 kts | 85° |
| 2026-05-05 21:53 | 49.09429 | 3.75089 | 21517 ft | 411 kts | 84° |
| 2026-05-05 21:53 | 49.09759 | 3.79427 | 21783 ft | 411 kts | 85° |
| 2026-05-05 21:53 | 49.10091 | 3.83810 | 21838 ft | 422 kts | 85° |
| 2026-05-05 21:53 | 49.10427 | 3.88310 | 21833 ft | 431 kts | 85° |
| 2026-05-05 21:54 | 49.10762 | 3.92864 | 21834 ft | 433 kts | 85° |
| 2026-05-05 21:54 | 49.11093 | 3.97436 | 21841 ft | 436 kts | 85° |
| 2026-05-05 21:54 | 49.11428 | 4.02079 | 21970 ft | 444 kts | 85° |
| 2026-05-05 21:54 | 49.11767 | 4.06736 | 22106 ft | 451 kts | 85° |
| 2026-05-05 21:55 | 49.12117 | 4.11520 | 22245 ft | 456 kts | 85° |
| 2026-05-05 21:55 | 49.12471 | 4.16357 | 22379 ft | 461 kts | 85° |
| 2026-05-05 21:55 | 49.12826 | 4.21241 | 22517 ft | 465 kts | 85° |
| 2026-05-05 21:55 | 49.13178 | 4.26155 | 22656 ft | 467 kts | 85° |
| 2026-05-05 21:56 | 49.13528 | 4.31097 | 22859 ft | 468 kts | 85° |
| 2026-05-05 21:56 | 49.14059 | 4.36000 | 23111 ft | 469 kts | 77° |
| 2026-05-05 21:56 | 49.15121 | 4.40705 | 23395 ft | 469 kts | 69° |
| 2026-05-05 21:56 | 49.16379 | 4.45309 | 23603 ft | 470 kts | 69° |
| 2026-05-05 21:57 | 49.17636 | 4.49916 | 23802 ft | 470 kts | 69° |
| 2026-05-05 21:57 | 49.18890 | 4.54525 | 24038 ft | 469 kts | 69° |
| 2026-05-05 21:57 | 49.20138 | 4.59135 | 24290 ft | 468 kts | 69° |
| 2026-05-05 21:57 | 49.21376 | 4.63732 | 24536 ft | 468 kts | 69° |
| 2026-05-05 21:58 | 49.22610 | 4.68329 | 24805 ft | 466 kts | 69° |
| 2026-05-05 21:58 | 49.23836 | 4.72911 | 25102 ft | 465 kts | 69° |
| 2026-05-05 21:58 | 49.25061 | 4.77488 | 25361 ft | 464 kts | 69° |
| 2026-05-05 21:58 | 49.26284 | 4.82059 | 25639 ft | 463 kts | 69° |
| 2026-05-05 21:59 | 49.27503 | 4.86616 | 25922 ft | 463 kts | 69° |
| 2026-05-05 21:59 | 49.28721 | 4.91174 | 26197 ft | 462 kts | 69° |
| 2026-05-05 21:59 | 49.29940 | 4.95742 | 26436 ft | 463 kts | 70° |
| 2026-05-05 21:59 | 49.31155 | 5.00312 | 26707 ft | 463 kts | 70° |
| 2026-05-05 22:00 | 49.32369 | 5.04884 | 27007 ft | 463 kts | 70° |
| 2026-05-05 22:00 | 49.33576 | 5.09444 | 27315 ft | 462 kts | 70° |
| 2026-05-05 22:00 | 49.34776 | 5.14009 | 27632 ft | 461 kts | 70° |
| 2026-05-05 22:00 | 49.35973 | 5.18568 | 27954 ft | 460 kts | 70° |
| 2026-05-05 22:01 | 49.37166 | 5.23111 | 28274 ft | 459 kts | 70° |
| 2026-05-05 22:01 | 49.38361 | 5.27658 | 28592 ft | 459 kts | 70° |
| 2026-05-05 22:01 | 49.39552 | 5.32191 | 28915 ft | 458 kts | 70° |
| 2026-05-05 22:01 | 49.40739 | 5.36722 | 29229 ft | 457 kts | 70° |
| 2026-05-05 22:02 | 49.41920 | 5.41248 | 29529 ft | 457 kts | 70° |
| 2026-05-05 22:02 | 49.43103 | 5.45785 | 29824 ft | 457 kts | 70° |
| 2026-05-05 22:02 | 49.44283 | 5.50319 | 30105 ft | 457 kts | 70° |
| 2026-05-05 22:02 | 49.45458 | 5.54846 | 30378 ft | 456 kts | 70° |
| 2026-05-05 22:03 | 49.46631 | 5.59373 | 30657 ft | 455 kts | 70° |
| 2026-05-05 22:03 | 49.47783 | 5.63827 | 30929 ft | 455 kts | 70° |
| 2026-05-05 22:03 | 49.48950 | 5.68345 | 31206 ft | 454 kts | 70° |
| 2026-05-05 22:03 | 49.50110 | 5.72860 | 31491 ft | 453 kts | 70° |
| 2026-05-05 22:04 | 49.51266 | 5.77364 | 31787 ft | 453 kts | 70° |
| 2026-05-05 22:04 | 49.52407 | 5.81878 | 32070 ft | 452 kts | 71° |
| 2026-05-05 22:04 | 49.53507 | 5.86400 | 32322 ft | 451 kts | 72° |
| 2026-05-05 22:04 | 49.54603 | 5.90933 | 32565 ft | 452 kts | 71° |
| 2026-05-05 22:05 | 49.55704 | 5.95462 | 32782 ft | 452 kts | 71° |
| 2026-05-05 22:05 | 49.57927 | 6.04519 | 32813 ft | 452 kts | 71° |
| 2026-05-05 22:06 | 49.60154 | 6.13544 | 32811 ft | 448 kts | 71° |
| 2026-05-05 22:06 | 49.62351 | 6.22497 | 32811 ft | 446 kts | 71° |
| 2026-05-05 22:07 | 49.64893 | 6.31215 | 32800 ft | 448 kts | 61° |
| 2026-05-05 22:07 | 49.68092 | 6.39506 | 32804 ft | 450 kts | 61° |
| 2026-05-05 22:08 | 49.71310 | 6.47819 | 32798 ft | 451 kts | 59° |
| 2026-05-05 22:08 | 49.75411 | 6.55094 | 32797 ft | 456 kts | 41° |
| 2026-05-05 22:09 | 49.80390 | 6.61295 | 32790 ft | 456 kts | 41° |
| 2026-05-05 22:09 | 49.85299 | 6.67424 | 32794 ft | 456 kts | 41° |
| 2026-05-05 22:10 | 49.90243 | 6.73610 | 32792 ft | 456 kts | 41° |
| 2026-05-05 22:10 | 49.95180 | 6.79807 | 32796 ft | 456 kts | 41° |
| 2026-05-05 22:10 | 49.97652 | 6.82918 | 32215 ft | 459 kts | 41° |
| 2026-05-05 22:11 | 50.00152 | 6.86071 | 30877 ft | 467 kts | 41° |
| 2026-05-05 22:11 | 50.02692 | 6.89279 | 29630 ft | 472 kts | 41° |
| 2026-05-05 22:11 | 50.05248 | 6.92510 | 28228 ft | 475 kts | 41° |
| 2026-05-05 22:11 | 50.07825 | 6.95767 | 26804 ft | 479 kts | 41° |
| 2026-05-05 22:12 | 50.10396 | 6.99023 | 25455 ft | 478 kts | 41° |
| 2026-05-05 22:12 | 50.12960 | 7.02293 | 24545 ft | 473 kts | 42° |
| 2026-05-05 22:12 | 50.15168 | 7.06015 | 23656 ft | 465 kts | 57° |
| 2026-05-05 22:12 | 50.16684 | 7.10418 | 22699 ft | 458 kts | 71° |
| 2026-05-05 22:13 | 50.17443 | 7.15190 | 21787 ft | 451 kts | 85° |
| 2026-05-05 22:13 | 50.17441 | 7.20028 | 20922 ft | 444 kts | 99° |
| 2026-05-05 22:13 | 50.16698 | 7.24634 | 20320 ft | 433 kts | 112° |
| 2026-05-05 22:13 | 50.15995 | 7.27532 | 19907 ft | 429 kts | 112° |
| 2026-05-05 22:14 | 50.14946 | 7.31850 | 19338 ft | 423 kts | 112° |
| 2026-05-05 22:14 | 50.13914 | 7.36103 | 18770 ft | 417 kts | 112° |
| 2026-05-05 22:14 | 50.12892 | 7.40305 | 18248 ft | 412 kts | 112° |
| 2026-05-05 22:14 | 50.11878 | 7.44453 | 17677 ft | 407 kts | 112° |
| 2026-05-05 22:15 | 50.10872 | 7.48545 | 17184 ft | 401 kts | 112° |
| 2026-05-05 22:15 | 50.09879 | 7.52576 | 16698 ft | 396 kts | 112° |
| 2026-05-05 22:15 | 50.08897 | 7.56552 | 16209 ft | 391 kts | 113° |
| 2026-05-05 22:15 | 50.07925 | 7.60478 | 15732 ft | 387 kts | 113° |
| 2026-05-05 22:16 | 50.06960 | 7.64366 | 15228 ft | 383 kts | 113° |
| 2026-05-05 22:16 | 50.06004 | 7.68213 | 14738 ft | 380 kts | 113° |
| 2026-05-05 22:16 | 50.05054 | 7.72033 | 14210 ft | 377 kts | 113° |
| 2026-05-05 22:16 | 50.04109 | 7.75823 | 13701 ft | 375 kts | 113° |
| 2026-05-05 22:17 | 50.03167 | 7.79596 | 13108 ft | 373 kts | 113° |
| 2026-05-05 22:17 | 50.02233 | 7.83335 | 12568 ft | 369 kts | 113° |
| 2026-05-05 22:17 | 50.01305 | 7.87042 | 12007 ft | 367 kts | 113° |
| 2026-05-05 22:17 | 50.00488 | 7.90795 | 11431 ft | 367 kts | 105° |
| 2026-05-05 22:18 | 50.00173 | 7.94725 | 10851 ft | 368 kts | 92° |
| 2026-05-05 22:18 | 50.00426 | 7.98703 | 10579 ft | 376 kts | 79° |
| 2026-05-05 22:18 | 50.01213 | 8.02609 | 10499 ft | 380 kts | 70° |
| 2026-05-05 22:18 | 50.02134 | 8.06372 | 10387 ft | 364 kts | 70° |
| 2026-05-05 22:19 | 50.03012 | 8.09976 | 10262 ft | 349 kts | 70° |
| 2026-05-05 22:19 | 50.03851 | 8.13435 | 10142 ft | 335 kts | 70° |
| 2026-05-05 22:19 | 50.04659 | 8.16768 | 10021 ft | 323 kts | 70° |
| 2026-05-05 22:19 | 50.05440 | 8.19977 | 9878 ft | 312 kts | 70° |
| 2026-05-05 22:20 | 50.06201 | 8.23107 | 9653 ft | 306 kts | 70° |
| 2026-05-05 22:20 | 50.06952 | 8.26202 | 9525 ft | 306 kts | 69° |
| 2026-05-05 22:20 | 50.07690 | 8.29258 | 9390 ft | 305 kts | 70° |
| 2026-05-05 22:20 | 50.08444 | 8.32390 | 9255 ft | 304 kts | 70° |
| 2026-05-05 22:21 | 50.09185 | 8.35470 | 9132 ft | 304 kts | 70° |
| 2026-05-05 22:21 | 50.09916 | 8.38511 | 8997 ft | 303 kts | 70° |
| 2026-05-05 22:21 | 50.10662 | 8.41622 | 8864 ft | 302 kts | 70° |
| 2026-05-05 22:21 | 50.11388 | 8.44646 | 8724 ft | 302 kts | 70° |
| 2026-05-05 22:22 | 50.12122 | 8.47710 | 8595 ft | 302 kts | 70° |
| 2026-05-05 22:22 | 50.12864 | 8.50812 | 8465 ft | 301 kts | 70° |
| 2026-05-05 22:22 | 50.13585 | 8.53833 | 8342 ft | 301 kts | 70° |
| 2026-05-05 22:22 | 50.14312 | 8.56884 | 8210 ft | 300 kts | 70° |
| 2026-05-05 22:23 | 50.15037 | 8.59925 | 8081 ft | 299 kts | 70° |
| 2026-05-05 22:23 | 50.15761 | 8.62962 | 7957 ft | 298 kts | 70° |
| 2026-05-05 22:23 | 50.16480 | 8.65986 | 7820 ft | 298 kts | 70° |
| 2026-05-05 22:23 | 50.17199 | 8.69011 | 7706 ft | 297 kts | 70° |
| 2026-05-05 22:24 | 50.17915 | 8.72024 | 7575 ft | 296 kts | 70° |
| 2026-05-05 22:24 | 50.18628 | 8.75033 | 7453 ft | 295 kts | 70° |
| 2026-05-05 22:24 | 50.19335 | 8.78015 | 7284 ft | 289 kts | 70° |
| 2026-05-05 22:24 | 50.20015 | 8.80887 | 7156 ft | 276 kts | 70° |
| 2026-05-05 22:25 | 50.20664 | 8.83640 | 7032 ft | 264 kts | 70° |
| 2026-05-05 22:25 | 50.21285 | 8.86282 | 6913 ft | 254 kts | 70° |
| 2026-05-05 22:25 | 50.21881 | 8.88822 | 6787 ft | 245 kts | 70° |
| 2026-05-05 22:25 | 50.22455 | 8.91275 | 6638 ft | 237 kts | 70° |
| 2026-05-05 22:26 | 50.23018 | 8.93676 | 6409 ft | 235 kts | 70° |
| 2026-05-05 22:26 | 50.23577 | 8.96056 | 6155 ft | 233 kts | 70° |
| 2026-05-05 22:26 | 50.24130 | 8.98421 | 5872 ft | 231 kts | 70° |
| 2026-05-05 22:26 | 50.24680 | 9.00779 | 5577 ft | 230 kts | 71° |
| 2026-05-05 22:27 | 50.25226 | 9.03123 | 5292 ft | 229 kts | 71° |
| 2026-05-05 22:27 | 50.25772 | 9.05460 | 5013 ft | 228 kts | 71° |
| 2026-05-05 22:27 | 50.26307 | 9.07755 | 4841 ft | 222 kts | 71° |
| 2026-05-05 22:27 | 50.26830 | 9.10007 | 4596 ft | 220 kts | 71° |
| 2026-05-05 22:28 | 50.27348 | 9.12251 | 4315 ft | 219 kts | 71° |
| 2026-05-05 22:28 | 50.27865 | 9.14485 | 4069 ft | 218 kts | 71° |
| 2026-05-05 22:28 | 50.28221 | 9.16752 | 4015 ft | 214 kts | 93° |
| 2026-05-05 22:28 | 50.27932 | 9.18982 | 4015 ft | 207 kts | 123° |
| 2026-05-05 22:29 | 50.26950 | 9.20525 | 4030 ft | 200 kts | 152° |
| 2026-05-05 22:29 | 50.25724 | 9.21532 | 4030 ft | 199 kts | 158° |
| 2026-05-05 22:29 | 50.24462 | 9.22413 | 4021 ft | 199 kts | 161° |
| 2026-05-05 22:29 | 50.23201 | 9.23215 | 4019 ft | 193 kts | 162° |
| 2026-05-05 22:30 | 50.21960 | 9.23996 | 4022 ft | 191 kts | 162° |
| 2026-05-05 22:30 | 50.20721 | 9.24740 | 4024 ft | 189 kts | 169° |
| 2026-05-05 22:30 | 50.19435 | 9.24963 | 4028 ft | 185 kts | 182° |
| 2026-05-05 22:30 | 50.18160 | 9.24834 | 4016 ft | 182 kts | 200° |
| 2026-05-05 22:31 | 50.17150 | 9.23748 | 4052 ft | 178 kts | 231° |
| 2026-05-05 22:31 | 50.16466 | 9.22137 | 4040 ft | 176 kts | 245° |
| 2026-05-05 22:31 | 50.16137 | 9.20397 | 4022 ft | 165 kts | 257° |
| 2026-05-05 22:31 | 50.15933 | 9.18650 | 4018 ft | 163 kts | 259° |
| 2026-05-05 22:32 | 50.15765 | 9.16894 | 4013 ft | 164 kts | 261° |
| 2026-05-05 22:32 | 50.15633 | 9.15122 | 4016 ft | 165 kts | 263° |
| 2026-05-05 22:32 | 50.15598 | 9.13334 | 4018 ft | 166 kts | 271° |
| 2026-05-05 22:32 | 50.15708 | 9.11543 | 4018 ft | 166 kts | 274° |
| 2026-05-05 22:33 | 50.15755 | 9.09748 | 4018 ft | 165 kts | 261° |
| 2026-05-05 22:33 | 50.15520 | 9.08004 | 4021 ft | 164 kts | 253° |
| 2026-05-05 22:33 | 50.15179 | 9.06261 | 4018 ft | 170 kts | 250° |
| 2026-05-05 22:33 | 50.14797 | 9.04516 | 4015 ft | 170 kts | 250° |
| 2026-05-05 22:34 | 50.14399 | 9.02774 | 4017 ft | 171 kts | 249° |
| 2026-05-05 22:34 | 50.13997 | 9.01036 | 4016 ft | 170 kts | 249° |
| 2026-05-05 22:34 | 50.13593 | 8.99303 | 4015 ft | 171 kts | 249° |
| 2026-05-05 22:34 | 50.13187 | 8.97565 | 4016 ft | 170 kts | 249° |
| 2026-05-05 22:35 | 50.12781 | 8.95831 | 4016 ft | 171 kts | 249° |
| 2026-05-05 22:35 | 50.12375 | 8.94095 | 4009 ft | 170 kts | 249° |
| 2026-05-05 22:35 | 50.11969 | 8.92363 | 4013 ft | 171 kts | 249° |
| 2026-05-05 22:35 | 50.11561 | 8.90623 | 4010 ft | 171 kts | 249° |
| 2026-05-05 22:36 | 50.11154 | 8.88891 | 4014 ft | 170 kts | 249° |
| 2026-05-05 22:36 | 50.10747 | 8.87159 | 4009 ft | 170 kts | 249° |
| 2026-05-05 22:36 | 50.10346 | 8.85452 | 3907 ft | 167 kts | 249° |
| 2026-05-05 22:36 | 50.09956 | 8.83794 | 3723 ft | 160 kts | 249° |
| 2026-05-05 22:37 | 50.09579 | 8.82194 | 3523 ft | 155 kts | 249° |
| 2026-05-05 22:37 | 50.09214 | 8.80644 | 3327 ft | 150 kts | 249° |
| 2026-05-05 22:37 | 50.08858 | 8.79138 | 3128 ft | 146 kts | 249° |
| 2026-05-05 22:37 | 50.08514 | 8.77679 | 2940 ft | 142 kts | 248° |
| 2026-05-05 22:38 | 50.08174 | 8.76241 | 2752 ft | 141 kts | 248° |
| 2026-05-05 22:38 | 50.07837 | 8.74812 | 2552 ft | 141 kts | 248° |
| 2026-05-05 22:38 | 50.07500 | 8.73388 | 2372 ft | 140 kts | 248° |
| 2026-05-05 22:38 | 50.07163 | 8.71966 | 2184 ft | 140 kts | 248° |
| 2026-05-05 22:39 | 50.06827 | 8.70547 | 1997 ft | 139 kts | 248° |
| 2026-05-05 22:39 | 50.06493 | 8.69136 | 1806 ft | 139 kts | 248° |
| 2026-05-05 22:39 | 50.06159 | 8.67729 | 1624 ft | 138 kts | 248° |
| 2026-05-05 22:39 | 50.05826 | 8.66325 | 1434 ft | 138 kts | 247° |
| 2026-05-05 22:40 | 50.05494 | 8.64922 | 1250 ft | 139 kts | 247° |
| 2026-05-05 22:40 | 50.05159 | 8.63491 | 998 ft | 142 kts | 248° |
| 2026-05-05 22:40 | 50.04812 | 8.62050 | 821 ft | 143 kts | 248° |
| 2026-05-05 22:40 | 50.04458 | 8.60595 | 678 ft | 144 kts | 248° |
| 2026-05-05 22:41 | 50.04119 | 8.59125 | 472 ft | 144 kts | 247° |
| 2026-05-05 22:41 | 50.03776 | 8.57701 | 363 ft | 130 kts | 250° |
| 2026-05-05 22:41 | 50.03523 | 8.56632 | 352 ft | 83 kts | 250° |
| 2026-05-05 22:41 | 50.03342 | 8.55878 | 348 ft | 69 kts | 250° |
| 2026-05-05 22:42 | 50.03216 | 8.55355 | 351 ft | 40 kts | 249° |
| 2026-05-05 22:42 | 50.03176 | 8.54996 | 351 ft | 30 kts | 275° |
| 2026-05-05 22:42 | 50.03205 | 8.54729 | 334 ft | 18 kts | 281° |
| 2026-05-05 22:42 | 50.03242 | 8.54546 | 334 ft | 15 kts | 306° |
| 2026-05-05 22:43 | 50.03310 | 8.54483 | 336 ft | 10 kts | 341° |
| 2026-05-05 22:43 | 50.03370 | 8.54447 | 339 ft | 7 kts | 339° |
| 2026-05-05 22:43 | 50.03381 | 8.54440 | 337 ft | 0 kts | 339° |
| 2026-05-05 22:46 | 50.03460 | 8.54393 | 352 ft | 22 kts | 339° |